San Vicent del Raspeig, Spain
Current Conditions -  °F | °C
As of 12:30 AM on Sunday 21 Dec 2014 (Local Time) from LEAL Reporting Station
Few Clouds Few Clouds  
Wind Chill: 50°   Ceiling: Unl
Heat Index: 50°   Visibility: 6mi
Dew Point: 50°   Wind: 5mph
Humidity: 100%   Direction: 290°WNW
Pressure: 30.45"   Gusts: NA
Location:  38.4°N, 0.53°W
Report Text: LEAL 202330Z 29004KT 9999 FEW018 10/10 Q1031 NOSIG
Loading
Personal Weather Stations






























Interactive Weather Map New forecast layout! Learn more

10-Day Weather Forecast

Advertisements
Track Severe Weather on mobile